createdAt,value
2022-10-25T00:02:21.627Z,76.61
2022-10-25T00:04:48.493Z,76.94
2022-10-25T00:07:15.855Z,78.12
2022-10-25T00:09:42.684Z,80.38
2022-10-25T00:12:09.589Z,78.91
2022-10-25T00:14:36.463Z,78.93
2022-10-25T00:17:03.320Z,77.51
2022-10-25T00:19:30.259Z,77.60
2022-10-25T00:21:57.093Z,82.16
2022-10-25T00:24:23.989Z,82.76
2022-10-25T00:26:51.011Z,83.82
2022-10-25T00:29:18.054Z,81.38
2022-10-25T00:31:45.115Z,81.75
2022-10-25T00:34:12.034Z,82.11
2022-10-25T00:36:38.887Z,80.84
2022-10-25T00:39:05.745Z,81.79
2022-10-25T00:41:34.599Z,79.53
2022-10-25T00:44:38.896Z,80.58
2022-10-25T00:47:42.744Z,84.18
2022-10-25T00:50:21.912Z,82.62
2022-10-25T00:52:52.042Z,80.72
2022-10-25T00:55:22.302Z,79.62
2022-10-25T00:57:56.840Z,79.81
2022-10-25T01:00:23.764Z,79.49
2022-10-25T01:02:51.260Z,79.26
2022-10-25T01:05:18.617Z,78.96
2022-10-25T01:07:45.970Z,78.66
2022-10-25T01:10:13.140Z,78.90
2022-10-25T01:12:40.184Z,79.72
2022-10-25T01:15:07.664Z,80.32
2022-10-25T01:18:15.888Z,81.02
2022-10-25T01:20:54.987Z,81.21
2022-10-25T01:23:36.714Z,81.95
2022-10-25T01:26:18.716Z,82.59
2022-10-25T01:28:48.670Z,83.99
2022-10-25T01:31:33.175Z,84.38
2022-10-25T01:34:08.997Z,83.96
2022-10-25T01:37:10.909Z,82.84
2022-10-25T01:40:06.849Z,83.21
2022-10-25T01:42:44.166Z,83.48
2022-10-25T01:45:20.322Z,82.90
2022-10-25T01:47:58.922Z,82.52
2022-10-25T01:50:32.710Z,82.29
2022-10-25T01:52:59.585Z,84.01
2022-10-25T01:55:48.154Z,84.39
2022-10-25T01:58:30.266Z,84.25
2022-10-25T02:01:08.601Z,84.72
2022-10-25T02:03:41.143Z,84.88
2022-10-25T02:06:52.212Z,85.98
2022-10-25T02:09:36.825Z,86.29
2022-10-25T02:12:04.784Z,86.37
2022-10-25T02:14:40.546Z,86.52
2022-10-25T02:17:24.657Z,87.08
2022-10-25T02:19:56.773Z,87.68
2022-10-25T02:22:29.592Z,88.16
2022-10-25T02:24:57.430Z,88.40
2022-10-25T02:27:25.181Z,88.61
2022-10-25T02:29:53.797Z,88.46
2022-10-25T02:32:21.149Z,89.33
2022-10-25T02:34:49.348Z,89.91
2022-10-25T02:37:17.820Z,89.89
2022-10-25T02:39:46.068Z,90.01
2022-10-25T02:42:12.828Z,89.60
2022-10-25T02:44:39.681Z,89.61
2022-10-25T02:47:06.555Z,89.03
2022-10-25T02:49:33.515Z,89.43
2022-10-25T02:52:00.352Z,90.14
2022-10-25T02:54:27.200Z,89.84
2022-10-25T02:56:54.217Z,90.45
2022-10-25T02:59:21.459Z,89.98
2022-10-25T03:01:48.975Z,90.52
2022-10-25T03:04:15.884Z,90.60
2022-10-25T03:25:05.717Z,97.98
2022-10-25T03:27:32.596Z,98.15
2022-10-25T03:29:59.378Z,97.75
2022-10-25T03:32:26.192Z,96.57
2022-10-25T03:34:53.005Z,96.11
2022-10-25T03:37:19.924Z,95.17
2022-10-25T03:39:46.747Z,94.31
2022-10-25T03:42:13.568Z,93.74
2022-10-25T03:44:40.548Z,94.48
2022-10-25T03:47:07.555Z,93.27
2022-10-25T03:49:34.340Z,94.26
2022-10-25T03:52:02.794Z,93.59
2022-10-25T03:54:31.905Z,93.14
2022-10-25T03:56:58.773Z,93.60
2022-10-25T03:59:25.788Z,94.04
2022-10-25T04:01:52.712Z,94.04
2022-10-25T04:04:19.697Z,93.82
2022-10-25T04:06:46.834Z,93.87
2022-10-25T04:09:13.713Z,94.16
2022-10-25T04:11:40.497Z,93.24
2022-10-25T04:14:07.389Z,93.99
2022-10-25T04:16:34.185Z,94.58
2022-10-25T04:19:01.042Z,94.51
2022-10-25T04:21:28.086Z,94.36
2022-10-25T04:23:55.033Z,94.53
2022-10-25T04:26:22.517Z,94.22
2022-10-25T04:28:53.831Z,93.17
2022-10-25T04:31:21.795Z,93.38
2022-10-25T04:33:53.061Z,93.00
2022-10-25T04:36:20.750Z,93.68
2022-10-25T04:38:51.757Z,93.39
2022-10-25T04:41:19.621Z,93.56
2022-10-25T04:43:47.273Z,93.36
2022-10-25T04:46:15.130Z,92.83
2022-10-25T04:48:42.918Z,92.95
2022-10-25T04:51:11.733Z,92.24
2022-10-25T04:53:38.741Z,91.84
2022-10-25T04:56:08.406Z,91.26
2022-10-25T04:58:35.779Z,90.40
2022-10-25T05:01:07.989Z,91.14
2022-10-25T05:03:35.170Z,91.26
2022-10-25T05:06:14.810Z,92.31
2022-10-25T05:08:44.566Z,90.50
2022-10-25T05:11:13.315Z,91.14
2022-10-25T05:13:41.981Z,92.87
2022-10-25T05:16:12.561Z,92.08
2022-10-25T05:18:39.405Z,91.93
2022-10-25T05:21:06.969Z,90.41
2022-10-25T05:23:34.974Z,91.79
2022-10-25T05:26:03.055Z,91.94
2022-10-25T05:28:29.942Z,91.59
2022-10-25T05:30:56.923Z,91.25
2022-10-25T05:33:23.843Z,89.58
2022-10-25T05:35:50.681Z,85.40
2022-10-25T05:38:17.564Z,85.33
2022-10-25T05:40:44.416Z,83.66
2022-10-25T05:43:11.206Z,79.73
2022-10-25T05:45:38.028Z,75.39
2022-10-25T05:48:04.881Z,72.63
2022-10-25T05:50:31.744Z,70.37
2022-10-25T05:52:58.605Z,65.76
2022-10-25T05:55:25.495Z,62.00
2022-10-25T05:57:52.380Z,59.07
2022-10-25T06:00:19.317Z,57.22
2022-10-25T06:02:46.336Z,53.67
2022-10-25T06:05:13.675Z,51.96
2022-10-25T06:07:40.466Z,49.83
2022-10-25T06:10:10.604Z,48.92
2022-10-25T06:12:37.729Z,47.45
2022-10-25T06:15:04.964Z,44.92
2022-10-25T06:17:31.822Z,43.92
2022-10-25T06:19:58.671Z,42.87
2022-10-25T06:22:25.453Z,42.13
2022-10-25T06:24:52.345Z,41.61
2022-10-25T06:27:19.410Z,42.12
2022-10-25T06:29:46.288Z,42.49
2022-10-25T06:32:13.224Z,42.82
2022-10-25T06:34:40.048Z,42.22
2022-10-25T06:37:06.866Z,41.45
2022-10-25T06:39:33.661Z,43.72
2022-10-25T06:42:00.526Z,44.01
2022-10-25T06:44:27.449Z,44.78
2022-10-25T06:49:41.300Z,44.36
2022-10-25T06:52:08.272Z,41.45
2022-10-25T06:54:35.943Z,38.39
2022-10-25T06:57:02.813Z,38.74
2022-10-25T06:59:29.742Z,38.04
2022-10-25T07:01:57.535Z,40.60
2022-10-25T07:04:24.541Z,38.58
2022-10-25T07:06:54.426Z,38.30
2022-10-25T07:09:22.500Z,37.12
2022-10-25T07:11:49.446Z,38.41
2022-10-25T07:14:16.270Z,40.56
2022-10-25T07:16:43.200Z,40.61
2022-10-25T07:19:10.729Z,39.37
2022-10-25T07:21:37.615Z,40.90
2022-10-25T07:24:04.554Z,40.57
2022-10-25T07:26:34.619Z,39.34
2022-10-25T07:29:03.865Z,38.11
2022-10-25T07:31:33.985Z,35.50
2022-10-25T07:34:02.670Z,35.66
2022-10-25T07:36:29.897Z,33.56
2022-10-25T07:38:57.499Z,33.56
2022-10-25T07:41:25.597Z,34.31
2022-10-25T07:43:52.475Z,35.14
2022-10-25T07:46:19.313Z,36.98
2022-10-25T07:48:46.198Z,41.02
2022-10-25T07:51:15.461Z,41.24
2022-10-25T07:53:42.626Z,42.32
2022-10-25T07:56:20.678Z,42.30
2022-10-25T07:58:52.325Z,39.65
2022-10-25T08:01:22.450Z,37.06
2022-10-25T08:03:50.099Z,37.77
2022-10-25T08:06:17.055Z,36.89
2022-10-25T08:08:44.032Z,35.62
2022-10-25T08:11:10.835Z,35.04
2022-10-25T08:13:38.892Z,37.48
2022-10-25T08:16:06.780Z,38.66
2022-10-25T08:18:34.475Z,40.23
2022-10-25T08:21:03.607Z,38.59
2022-10-25T08:23:31.853Z,38.66
2022-10-25T08:25:59.470Z,37.14
2022-10-25T08:28:26.457Z,36.89
2022-10-25T08:30:55.436Z,35.97
2022-10-25T08:33:22.593Z,33.89
2022-10-25T08:35:49.519Z,35.88
2022-10-25T08:38:16.339Z,34.51
2022-10-25T08:40:49.293Z,32.33
2022-10-25T08:43:37.673Z,33.52
2022-10-25T08:46:10.709Z,32.89
2022-10-25T08:48:43.290Z,32.45
2022-10-25T08:51:24.837Z,30.49
2022-10-25T08:56:28.511Z,32.32
2022-10-25T08:59:00.234Z,32.91
2022-10-25T09:01:44.989Z,35.87
2022-10-25T09:04:12.015Z,32.79
2022-10-25T09:06:47.958Z,30.44
2022-10-25T09:09:45.132Z,29.71
2022-10-25T09:12:11.966Z,27.68
2022-10-25T09:15:01.696Z,29.67
2022-10-25T09:17:44.816Z,29.12
2022-10-25T09:20:21.112Z,28.64
2022-10-25T09:22:51.593Z,28.51
2022-10-25T09:25:30.269Z,28.50
2022-10-25T09:28:04.038Z,27.84
2022-10-25T09:30:37.802Z,26.66
2022-10-25T09:33:12.809Z,26.58
2022-10-25T09:35:39.627Z,27.46
2022-10-25T09:38:33.878Z,27.44
2022-10-25T09:41:04.524Z,26.60
2022-10-25T09:43:39.622Z,26.37
2022-10-25T09:46:14.150Z,26.35
2022-10-25T09:48:50.151Z,25.09
2022-10-25T09:51:30.876Z,25.17
2022-10-25T09:53:59.751Z,25.24
2022-10-25T09:56:26.661Z,26.33
2022-10-25T09:58:53.723Z,27.79
2022-10-25T10:01:25.900Z,29.73
2022-10-25T10:03:55.822Z,29.58
2022-10-25T10:06:34.513Z,29.67
2022-10-25T10:09:05.895Z,28.46
2022-10-25T10:11:35.237Z,28.15
2022-10-25T10:14:11.586Z,30.94
2022-10-25T10:16:48.943Z,31.67
2022-10-25T10:19:24.158Z,31.83
2022-10-25T10:21:57.420Z,31.85
2022-10-25T10:24:37.470Z,33.80
2022-10-25T10:27:24.562Z,33.26
2022-10-25T10:29:55.448Z,35.06
2022-10-25T10:32:27.144Z,33.66
2022-10-25T10:34:57.496Z,33.41
2022-10-25T10:37:27.041Z,33.27
2022-10-25T10:39:58.208Z,34.11
2022-10-25T10:42:34.953Z,33.44
2022-10-25T10:45:09.822Z,32.32
2022-10-25T10:47:48.837Z,32.59
2022-10-25T10:50:25.602Z,33.21
2022-10-25T10:53:21.719Z,32.97
2022-10-25T10:55:52.493Z,33.87
2022-10-25T10:58:25.767Z,35.23
2022-10-25T11:00:54.074Z,35.05
2022-10-25T11:03:49.203Z,35.08
2022-10-25T11:06:34.445Z,37.99
2022-10-25T11:09:25.558Z,36.34
2022-10-25T11:12:18.951Z,37.37
2022-10-25T11:14:45.949Z,36.05
2022-10-25T11:17:18.069Z,33.34
2022-10-25T11:20:09.425Z,31.54
2022-10-25T11:25:20.933Z,31.24
2022-10-25T11:27:53.497Z,32.71
2022-10-25T11:30:22.925Z,32.81
2022-10-25T11:33:21.664Z,32.78
2022-10-25T11:36:21.373Z,33.09
2022-10-25T11:39:14.589Z,32.53
2022-10-25T11:41:45.341Z,33.71
2022-10-25T11:44:49.893Z,31.74
2022-10-25T11:47:31.454Z,34.54
2022-10-25T11:50:22.532Z,34.12
2022-10-25T11:52:54.477Z,36.10
2022-10-25T11:55:48.312Z,39.57
2022-10-25T11:58:24.004Z,42.45
2022-10-25T12:01:24.288Z,44.71
2022-10-25T12:04:18.785Z,45.54
2022-10-25T12:06:58.401Z,46.04
2022-10-25T12:09:31.211Z,46.60
2022-10-25T12:12:26.630Z,49.16
2022-10-25T12:14:58.809Z,49.30
2022-10-25T12:17:34.598Z,51.29
2022-10-25T12:20:05.607Z,51.40
2022-10-25T12:22:40.258Z,52.97
2022-10-25T12:25:29.316Z,52.96
2022-10-25T12:28:09.946Z,53.90
2022-10-25T12:30:37.978Z,54.50
2022-10-25T12:33:19.526Z,54.93
2022-10-25T12:35:54.216Z,55.11
2022-10-25T12:38:31.367Z,55.95
2022-10-25T12:41:04.702Z,57.02
2022-10-25T12:43:34.503Z,57.20
2022-10-25T12:46:13.423Z,58.05
2022-10-25T12:49:13.562Z,58.53
2022-10-25T12:51:59.237Z,58.80
2022-10-25T12:55:20.867Z,59.10
2022-10-25T12:58:17.440Z,59.75
2022-10-25T13:01:01.058Z,60.54
2022-10-25T13:03:33.861Z,60.37
2022-10-25T13:06:16.010Z,60.33
2022-10-25T13:08:44.223Z,60.91
2022-10-25T13:11:11.502Z,60.90
2022-10-25T13:13:48.309Z,61.38
2022-10-25T13:16:30.857Z,62.28
2022-10-25T13:19:53.149Z,62.49
2022-10-25T13:22:37.997Z,62.85
2022-10-25T13:25:08.815Z,62.40
2022-10-25T13:27:36.553Z,62.35
2022-10-25T13:30:06.590Z,62.50
2022-10-25T13:32:35.891Z,62.51
2022-10-25T13:35:23.497Z,62.34
2022-10-25T13:37:53.942Z,62.85
2022-10-25T13:40:26.770Z,62.82
2022-10-25T13:43:18.315Z,63.10
2022-10-25T13:45:47.602Z,63.34
2022-10-25T13:48:14.372Z,63.70
2022-10-25T13:50:44.879Z,63.64
2022-10-25T13:53:34.328Z,63.99
2022-10-25T13:56:32.754Z,64.67
2022-10-25T13:59:02.101Z,65.44
2022-10-25T14:01:31.182Z,66.14
2022-10-25T14:04:19.905Z,67.37
2022-10-25T14:06:47.061Z,68.23
2022-10-25T14:09:25.583Z,69.03
2022-10-25T14:12:19.399Z,69.63
2022-10-25T14:15:09.185Z,70.06
2022-10-25T14:17:40.728Z,70.31
2022-10-25T14:20:09.305Z,70.83
2022-10-25T14:22:40.331Z,71.86
2022-10-25T14:25:34.004Z,73.12
2022-10-25T14:28:12.332Z,73.13
2022-10-25T14:30:44.029Z,73.88
2022-10-25T14:33:23.412Z,74.05
2022-10-25T14:36:17.899Z,74.35
2022-10-25T14:38:55.214Z,75.07
2022-10-25T14:41:28.034Z,75.50
2022-10-25T14:43:55.249Z,75.59
2022-10-25T14:46:24.532Z,75.81
2022-10-25T14:48:59.310Z,76.12
2022-10-25T14:51:34.144Z,76.72
2022-10-25T14:54:06.977Z,77.24
2022-10-25T14:56:38.864Z,77.40
2022-10-25T14:59:16.431Z,78.11
2022-10-25T15:01:59.632Z,78.03
2022-10-25T15:04:30.326Z,77.91
2022-10-25T15:06:57.638Z,77.56
2022-10-25T15:27:40.258Z,80.83
2022-10-25T15:30:27.401Z,80.70
2022-10-25T15:32:54.238Z,80.06
2022-10-25T15:35:25.495Z,79.81
2022-10-25T15:37:52.750Z,78.91
2022-10-25T15:40:20.035Z,78.68
2022-10-25T15:42:47.034Z,78.57
2022-10-25T15:45:14.527Z,78.81
2022-10-25T15:47:42.680Z,78.38
2022-10-25T15:50:19.460Z,78.37
2022-10-25T15:52:46.621Z,78.12
2022-10-25T15:55:26.990Z,78.17
2022-10-25T15:57:55.173Z,77.79
2022-10-25T16:00:27.930Z,78.79
2022-10-25T16:02:56.267Z,78.84
2022-10-25T16:05:26.173Z,79.16
2022-10-25T16:07:53.656Z,78.61
2022-10-25T16:10:22.837Z,78.77
2022-10-25T16:13:10.066Z,78.45
2022-10-25T16:15:37.112Z,78.13
2022-10-25T16:18:04.174Z,78.90
2022-10-25T16:20:32.210Z,79.23
2022-10-25T16:22:58.996Z,79.19
2022-10-25T16:25:30.460Z,79.75
2022-10-25T16:28:00.579Z,80.17
2022-10-25T16:30:32.186Z,80.97
2022-10-25T16:32:59.982Z,81.66
2022-10-25T16:35:26.831Z,81.77
2022-10-25T16:37:54.113Z,80.69
2022-10-25T16:40:22.054Z,80.41
2022-10-25T16:42:49.937Z,80.51
2022-10-25T16:45:19.443Z,80.28
2022-10-25T16:47:46.602Z,80.07
2022-10-25T16:50:14.981Z,79.88
2022-10-25T16:52:42.282Z,79.62
2022-10-25T16:55:10.242Z,79.05
2022-10-25T16:57:37.213Z,78.56
2022-10-25T17:00:04.686Z,77.81
2022-10-25T17:02:31.724Z,76.32
2022-10-25T17:04:58.665Z,76.24
2022-10-25T17:07:25.554Z,76.62
2022-10-25T17:09:52.379Z,76.28
2022-10-25T17:12:19.277Z,76.91
2022-10-25T17:14:46.066Z,76.82
2022-10-25T17:17:13.040Z,76.42
2022-10-25T17:19:39.925Z,76.46
2022-10-25T17:22:07.156Z,75.92
2022-10-25T17:24:37.539Z,75.84
2022-10-25T17:29:37.725Z,76.51
2022-10-25T17:32:04.649Z,76.52
2022-10-25T17:34:32.224Z,77.02
2022-10-25T17:37:00.283Z,77.12
2022-10-25T17:39:27.193Z,77.24
2022-10-25T17:41:53.985Z,76.55
2022-10-25T17:44:20.793Z,76.30
2022-10-25T17:46:48.386Z,75.80
2022-10-25T17:49:15.342Z,76.02
2022-10-25T17:51:43.936Z,76.20
2022-10-25T17:54:10.900Z,76.75
2022-10-25T17:56:37.897Z,75.78
2022-10-25T17:59:07.792Z,77.36
2022-10-25T18:01:35.490Z,76.46
2022-10-25T18:04:02.781Z,77.28
2022-10-25T18:06:31.028Z,76.98
2022-10-25T18:08:59.191Z,76.44
2022-10-25T18:11:28.494Z,75.61
2022-10-25T18:13:58.435Z,75.16
2022-10-25T18:16:27.180Z,75.21
2022-10-25T18:18:56.760Z,75.13
2022-10-25T18:21:24.542Z,74.96
2022-10-25T18:23:55.786Z,74.74
2022-10-25T18:26:22.920Z,74.31
2022-10-25T18:28:50.219Z,73.69
2022-10-25T18:31:17.474Z,73.99
2022-10-25T18:33:44.309Z,75.14
2022-10-25T18:36:19.581Z,75.05
2022-10-25T18:38:51.089Z,75.57
2022-10-25T18:41:24.760Z,76.12
2022-10-25T18:43:51.768Z,76.11
2022-10-25T18:46:18.958Z,77.21
2022-10-25T18:48:52.554Z,77.33
2022-10-25T18:51:21.410Z,77.22
2022-10-25T18:53:48.405Z,76.45
2022-10-25T18:56:19.600Z,75.83
2022-10-25T18:58:49.341Z,75.33
2022-10-25T19:01:20.885Z,75.25
2022-10-25T19:03:47.880Z,75.56
2022-10-25T19:06:14.678Z,76.19
2022-10-25T19:08:42.574Z,76.04
2022-10-25T19:11:13.856Z,76.17
2022-10-25T19:13:40.935Z,76.18
2022-10-25T19:16:09.191Z,76.26
2022-10-25T19:18:37.540Z,76.82
2022-10-25T19:21:09.439Z,77.57
2022-10-25T19:23:37.172Z,77.56
2022-10-25T19:26:10.424Z,78.10
2022-10-25T19:28:37.311Z,77.90
2022-10-25T19:31:10.584Z,77.80
2022-10-25T19:33:37.645Z,77.26
2022-10-25T19:36:13.125Z,77.57
2022-10-25T19:38:40.425Z,76.83
2022-10-25T19:41:09.981Z,75.91
2022-10-25T19:43:37.018Z,75.85
2022-10-25T19:46:06.197Z,75.02
2022-10-25T19:48:34.132Z,75.06
2022-10-25T19:51:11.536Z,75.42
2022-10-25T19:53:38.921Z,75.48
2022-10-25T19:56:12.690Z,76.23
2022-10-25T19:58:39.960Z,75.44
2022-10-25T20:01:13.249Z,74.12
2022-10-25T20:03:40.972Z,73.13
2022-10-25T20:06:11.206Z,72.47
2022-10-25T20:08:40.057Z,71.56
2022-10-25T20:11:08.825Z,70.31
2022-10-25T20:13:35.660Z,68.47
2022-10-25T20:16:02.570Z,67.99
2022-10-25T20:18:33.814Z,67.62
2022-10-25T20:21:04.079Z,67.95
2022-10-25T20:23:31.505Z,68.06
2022-10-25T20:25:58.500Z,66.86
2022-10-25T20:28:25.431Z,65.93
2022-10-25T20:30:52.381Z,64.95
2022-10-25T20:33:21.204Z,64.30
2022-10-25T20:35:48.042Z,62.51
2022-10-25T20:38:14.936Z,62.16
2022-10-25T20:40:41.796Z,61.07
2022-10-25T20:43:08.651Z,60.56
2022-10-25T20:45:35.497Z,60.55
2022-10-25T20:48:02.553Z,59.95
2022-10-25T20:50:31.407Z,59.49
2022-10-25T20:53:09.837Z,59.75
2022-10-25T20:55:37.917Z,60.71
2022-10-25T20:58:05.426Z,60.42
2022-10-25T21:00:32.999Z,61.14
2022-10-25T21:03:00.138Z,61.24
2022-10-25T21:05:27.354Z,61.58
2022-10-25T21:07:54.272Z,62.03
2022-10-25T21:10:21.107Z,61.98
2022-10-25T21:12:47.967Z,62.23
2022-10-25T21:15:14.928Z,61.66
2022-10-25T21:17:41.873Z,61.23
2022-10-25T21:20:09.176Z,61.23
2022-10-25T21:22:36.024Z,61.26
2022-10-25T21:25:02.924Z,61.07
2022-10-25T21:27:29.860Z,61.74
2022-10-25T21:29:56.809Z,61.65
2022-10-25T21:32:23.682Z,61.67
2022-10-25T21:34:50.407Z,61.84
2022-10-25T21:37:17.331Z,62.32
2022-10-25T21:39:45.884Z,63.75
2022-10-25T21:42:12.749Z,62.87
2022-10-25T21:44:39.733Z,63.84
2022-10-25T21:47:06.711Z,64.57
2022-10-25T21:49:33.654Z,65.31
2022-10-25T21:52:00.543Z,65.03
2022-10-25T21:54:28.177Z,65.43
2022-10-25T21:56:55.410Z,65.57
2022-10-25T21:59:22.810Z,65.78
2022-10-25T22:01:50.604Z,66.21
2022-10-25T22:04:17.571Z,66.01
2022-10-25T22:06:44.462Z,65.96
2022-10-25T22:09:11.334Z,65.74
2022-10-25T22:11:39.128Z,65.52
2022-10-25T22:14:09.454Z,65.54
2022-10-25T22:16:36.888Z,66.06
2022-10-25T22:21:55.871Z,65.10
2022-10-25T22:24:22.806Z,65.57
2022-10-25T22:26:50.957Z,64.67
2022-10-25T22:29:17.860Z,64.39
2022-10-25T22:31:44.831Z,64.13
2022-10-25T22:34:11.708Z,63.56
2022-10-25T22:36:40.313Z,62.94
2022-10-25T22:39:08.092Z,63.57
2022-10-25T22:41:35.688Z,63.51
2022-10-25T22:44:02.908Z,63.77
2022-10-25T22:46:33.212Z,63.61
2022-10-25T22:49:05.638Z,63.10
2022-10-25T22:51:32.995Z,63.60
2022-10-25T22:54:00.154Z,63.37
2022-10-25T22:56:28.696Z,62.82
2022-10-25T22:58:57.810Z,63.28
2022-10-25T23:01:27.195Z,63.65
2022-10-25T23:03:56.495Z,63.35
2022-10-25T23:06:26.812Z,63.07
2022-10-25T23:08:55.760Z,62.95
2022-10-25T23:11:31.201Z,62.86
2022-10-25T23:14:05.417Z,62.93
2022-10-25T23:16:32.481Z,63.20
2022-10-25T23:18:59.429Z,62.64
2022-10-25T23:21:30.183Z,62.96
2022-10-25T23:23:58.915Z,63.42
2022-10-25T23:26:36.628Z,63.44
2022-10-25T23:29:04.664Z,63.22
2022-10-25T23:31:32.035Z,63.61
2022-10-25T23:34:00.528Z,63.75
2022-10-25T23:36:29.961Z,63.82
2022-10-25T23:38:57.932Z,63.98
2022-10-25T23:41:24.793Z,64.21
2022-10-25T23:43:51.772Z,64.09
2022-10-25T23:46:18.883Z,63.69
2022-10-25T23:48:46.015Z,64.04
2022-10-25T23:51:15.257Z,64.56
2022-10-25T23:53:42.869Z,64.35
2022-10-25T23:56:13.088Z,64.24
2022-10-25T23:58:40.020Z,64.48
